sensor_id;sensor_type;location;lat;lon;timestamp;pressure;altitude;pressure_sealevel;temperature;humidity
12215;BME280;6170;42.206;24.142;2022-10-04T00:00:25;98984.75;;;14.32;57.16
12215;BME280;6170;42.206;24.142;2022-10-04T00:02:55;98972.66;;;14.17;56.55
12215;BME280;6170;42.206;24.142;2022-10-04T00:05:27;98967.66;;;13.95;57.66
12215;BME280;6170;42.206;24.142;2022-10-04T00:07:58;98961.16;;;13.47;58.54
12215;BME280;6170;42.206;24.142;2022-10-04T00:10:29;98965.97;;;13.45;59.37
12215;BME280;6170;42.206;24.142;2022-10-04T00:12:58;98963.63;;;13.17;60.08
12215;BME280;6170;42.206;24.142;2022-10-04T00:15:28;98968.59;;;13.07;61.42
12215;BME280;6170;42.206;24.142;2022-10-04T00:18:06;98975.41;;;13.10;61.74
12215;BME280;6170;42.206;24.142;2022-10-04T00:20:56;99012.63;;;13.19;62.39
12215;BME280;6170;42.206;24.142;2022-10-04T00:23:42;98965.06;;;13.06;62.42
12215;BME280;6170;42.206;24.142;2022-10-04T00:28:56;98964.16;;;12.81;62.87
12215;BME280;6170;42.206;24.142;2022-10-04T00:31:24;98951.97;;;12.79;63.16
12215;BME280;6170;42.206;24.142;2022-10-04T00:33:53;98959.16;;;12.85;62.24
12215;BME280;6170;42.206;24.142;2022-10-04T00:36:45;98961.78;;;13.04;62.67
12215;BME280;6170;42.206;24.142;2022-10-04T00:39:17;98966.03;;;13.32;61.64
12215;BME280;6170;42.206;24.142;2022-10-04T00:41:57;98989.47;;;13.56;61.71
12215;BME280;6170;42.206;24.142;2022-10-04T00:44:31;98964.56;;;13.36;61.66
12215;BME280;6170;42.206;24.142;2022-10-04T00:47:01;98964.66;;;13.54;61.73
12215;BME280;6170;42.206;24.142;2022-10-04T00:49:32;98947.75;;;13.72;61.51
12215;BME280;6170;42.206;24.142;2022-10-04T00:52:05;98969.50;;;13.70;61.25
12215;BME280;6170;42.206;24.142;2022-10-04T00:54:39;98960.47;;;13.89;60.94
12215;BME280;6170;42.206;24.142;2022-10-04T00:57:11;98957.06;;;14.01;60.60
12215;BME280;6170;42.206;24.142;2022-10-04T00:59:43;98949.81;;;14.01;60.18
12215;BME280;6170;42.206;24.142;2022-10-04T01:02:15;98957.44;;;14.04;59.90
12215;BME280;6170;42.206;24.142;2022-10-04T01:04:47;98947.84;;;14.08;59.46
12215;BME280;6170;42.206;24.142;2022-10-04T01:07:18;98939.31;;;13.93;60.29
12215;BME280;6170;42.206;24.142;2022-10-04T01:09:55;98957.00;;;14.07;59.97
12215;BME280;6170;42.206;24.142;2022-10-04T01:12:32;98953.31;;;14.02;60.36
12215;BME280;6170;42.206;24.142;2022-10-04T01:15:05;98952.94;;;13.98;60.36
12215;BME280;6170;42.206;24.142;2022-10-04T01:17:33;98953.47;;;13.82;60.63
12215;BME280;6170;42.206;24.142;2022-10-04T01:20:00;98955.50;;;13.86;60.02
12215;BME280;6170;42.206;24.142;2022-10-04T01:22:35;98949.00;;;13.94;60.70
12215;BME280;6170;42.206;24.142;2022-10-04T01:25:03;98958.06;;;14.06;60.37
12215;BME280;6170;42.206;24.142;2022-10-04T01:27:33;98949.50;;;14.09;60.75
12215;BME280;6170;42.206;24.142;2022-10-04T01:30:04;98961.94;;;14.10;60.44
12215;BME280;6170;42.206;24.142;2022-10-04T01:32:34;98974.22;;;14.06;61.00
12215;BME280;6170;42.206;24.142;2022-10-04T01:35:01;98962.66;;;13.99;61.35
12215;BME280;6170;42.206;24.142;2022-10-04T01:37:28;98973.97;;;13.83;61.31
12215;BME280;6170;42.206;24.142;2022-10-04T01:39:56;98975.00;;;13.82;61.63
12215;BME280;6170;42.206;24.142;2022-10-04T01:42:28;98973.97;;;13.83;61.98
12215;BME280;6170;42.206;24.142;2022-10-04T01:45:01;98973.88;;;13.71;62.35
12215;BME280;6170;42.206;24.142;2022-10-04T01:47:36;98981.66;;;13.48;61.93
12215;BME280;6170;42.206;24.142;2022-10-04T01:50:10;98983.25;;;13.62;62.02
12215;BME280;6170;42.206;24.142;2022-10-04T01:52:41;98975.38;;;13.61;61.08
12215;BME280;6170;42.206;24.142;2022-10-04T01:55:14;98975.38;;;13.61;61.22
12215;BME280;6170;42.206;24.142;2022-10-04T01:57:45;98953.09;;;13.47;60.97
12215;BME280;6170;42.206;24.142;2022-10-04T02:00:15;98990.22;;;13.70;61.30
12215;BME280;6170;42.206;24.142;2022-10-04T02:02:48;99033.31;;;14.01;61.44
12215;BME280;6170;42.206;24.142;2022-10-04T02:05:18;98976.69;;;13.76;61.68
12215;BME280;6170;42.206;24.142;2022-10-04T02:07:50;98987.75;;;13.68;61.27
12215;BME280;6170;42.206;24.142;2022-10-04T02:10:20;98980.22;;;13.77;61.28
12215;BME280;6170;42.206;24.142;2022-10-04T02:12:49;98983.75;;;13.77;61.68
12215;BME280;6170;42.206;24.142;2022-10-04T02:15:20;98978.81;;;13.74;61.65
12215;BME280;6170;42.206;24.142;2022-10-04T02:17:49;98989.31;;;13.51;61.87
12215;BME280;6170;42.206;24.142;2022-10-04T02:20:19;98978.41;;;13.71;61.86
12215;BME280;6170;42.206;24.142;2022-10-04T02:22:49;98995.72;;;13.81;61.73
12215;BME280;6170;42.206;24.142;2022-10-04T02:25:19;98986.88;;;13.74;61.55
12215;BME280;6170;42.206;24.142;2022-10-04T02:27:50;98987.16;;;13.66;61.88
12215;BME280;6170;42.206;24.142;2022-10-04T02:30:18;98990.25;;;13.63;62.06
12215;BME280;6170;42.206;24.142;2022-10-04T02:32:45;98997.56;;;13.56;62.14
12215;BME280;6170;42.206;24.142;2022-10-04T02:35:26;99002.19;;;13.42;62.02
12215;BME280;6170;42.206;24.142;2022-10-04T02:38:01;99004.31;;;13.34;61.59
12215;BME280;6170;42.206;24.142;2022-10-04T02:40:36;99000.66;;;13.22;62.68
12215;BME280;6170;42.206;24.142;2022-10-04T02:43:09;99005.66;;;13.12;62.66
12215;BME280;6170;42.206;24.142;2022-10-04T02:45:46;99009.13;;;13.05;63.09
12215;BME280;6170;42.206;24.142;2022-10-04T02:48:25;99002.94;;;13.12;62.26
12215;BME280;6170;42.206;24.142;2022-10-04T02:50:55;98995.38;;;12.82;63.42
12215;BME280;6170;42.206;24.142;2022-10-04T02:53:30;99015.88;;;12.64;64.01
12215;BME280;6170;42.206;24.142;2022-10-04T02:56:03;99011.94;;;12.66;63.95
12215;BME280;6170;42.206;24.142;2022-10-04T02:58:31;99022.50;;;12.68;64.07
12215;BME280;6170;42.206;24.142;2022-10-04T03:00:59;99067.50;;;13.18;63.50
12215;BME280;6170;42.206;24.142;2022-10-04T03:03:27;99025.59;;;12.71;63.06
12215;BME280;6170;42.206;24.142;2022-10-04T03:05:59;99033.22;;;12.87;62.87
12215;BME280;6170;42.206;24.142;2022-10-04T03:08:30;99026.41;;;12.72;63.28
12215;BME280;6170;42.206;24.142;2022-10-04T03:10:59;98985.09;;;12.53;63.30
12215;BME280;6170;42.206;24.142;2022-10-04T03:13:30;99036.47;;;13.09;63.35
12215;BME280;6170;42.206;24.142;2022-10-04T03:15:59;98989.16;;;12.82;62.87
12215;BME280;6170;42.206;24.142;2022-10-04T03:18:28;99043.25;;;13.25;61.72
12215;BME280;6170;42.206;24.142;2022-10-04T03:20:55;99024.28;;;13.00;62.81
12215;BME280;6170;42.206;24.142;2022-10-04T03:23:23;99027.38;;;13.03;62.28
12215;BME280;6170;42.206;24.142;2022-10-04T03:25:52;99018.28;;;12.98;62.52
12215;BME280;6170;42.206;24.142;2022-10-04T03:28:21;99027.56;;;13.22;62.56
12215;BME280;6170;42.206;24.142;2022-10-04T03:30:49;99026.53;;;13.23;63.12
12215;BME280;6170;42.206;24.142;2022-10-04T03:33:19;99019.91;;;13.05;62.18
12215;BME280;6170;42.206;24.142;2022-10-04T03:35:50;99032.72;;;13.10;62.93
12215;BME280;6170;42.206;24.142;2022-10-04T03:38:20;99028.81;;;13.06;62.27
12215;BME280;6170;42.206;24.142;2022-10-04T03:40:54;99037.50;;;13.08;62.67
12215;BME280;6170;42.206;24.142;2022-10-04T03:43:23;99032.75;;;12.97;62.63
12215;BME280;6170;42.206;24.142;2022-10-04T03:45:54;99006.53;;;12.79;62.63
12215;BME280;6170;42.206;24.142;2022-10-04T03:48:29;99021.03;;;12.72;62.85
12215;BME280;6170;42.206;24.142;2022-10-04T03:50:57;98983.66;;;12.50;62.41
12215;BME280;6170;42.206;24.142;2022-10-04T03:53:30;99033.47;;;12.73;63.21
12215;BME280;6170;42.206;24.142;2022-10-04T03:56:01;99003.47;;;12.63;62.29
12215;BME280;6170;42.206;24.142;2022-10-04T03:58:29;99033.81;;;12.89;62.84
12215;BME280;6170;42.206;24.142;2022-10-04T04:01:09;99039.63;;;12.80;62.41
12215;BME280;6170;42.206;24.142;2022-10-04T04:03:47;99033.44;;;12.79;62.74
12215;BME280;6170;42.206;24.142;2022-10-04T04:06:18;99039.84;;;12.85;62.96
12215;BME280;6170;42.206;24.142;2022-10-04T04:08:48;99044.19;;;12.86;63.38
12215;BME280;6170;42.206;24.142;2022-10-04T04:11:21;99039.84;;;12.85;63.53
12215;BME280;6170;42.206;24.142;2022-10-04T04:13:53;99050.19;;;12.81;62.97
12215;BME280;6170;42.206;24.142;2022-10-04T04:16:24;99077.66;;;13.16;62.65
12215;BME280;6170;42.206;24.142;2022-10-04T04:18:52;99041.50;;;12.86;62.38
12215;BME280;6170;42.206;24.142;2022-10-04T04:21:21;99041.13;;;12.69;62.04
12215;BME280;6170;42.206;24.142;2022-10-04T04:23:52;99033.06;;;12.69;62.75
12215;BME280;6170;42.206;24.142;2022-10-04T04:26:24;99045.00;;;12.86;62.13
12215;BME280;6170;42.206;24.142;2022-10-04T04:28:53;99046.06;;;12.72;62.33
12215;BME280;6170;42.206;24.142;2022-10-04T04:31:25;99043.59;;;12.57;63.03
12215;BME280;6170;42.206;24.142;2022-10-04T04:33:56;99053.06;;;12.80;62.20
12215;BME280;6170;42.206;24.142;2022-10-04T04:36:25;99048.13;;;12.77;61.57
12215;BME280;6170;42.206;24.142;2022-10-04T04:38:52;99043.94;;;12.94;61.47
12215;BME280;6170;42.206;24.142;2022-10-04T04:41:36;99055.75;;;12.93;61.37
12215;BME280;6170;42.206;24.142;2022-10-04T04:44:13;99047.22;;;13.02;61.32
12215;BME280;6170;42.206;24.142;2022-10-04T04:46:43;99055.50;;;13.07;61.46
12215;BME280;6170;42.206;24.142;2022-10-04T04:49:14;99021.38;;;13.01;61.33
12215;BME280;6170;42.206;24.142;2022-10-04T04:51:47;99054.06;;;13.18;61.22
12215;BME280;6170;42.206;24.142;2022-10-04T04:54:16;99051.19;;;13.13;61.53
12215;BME280;6170;42.206;24.142;2022-10-04T04:56:46;99070.38;;;13.23;60.49
12215;BME280;6170;42.206;24.142;2022-10-04T04:59:15;99071.22;;;13.17;61.24
12215;BME280;6170;42.206;24.142;2022-10-04T05:01:45;99076.38;;;13.05;62.24
12215;BME280;6170;42.206;24.142;2022-10-04T05:04:19;99073.50;;;13.20;61.58
12215;BME280;6170;42.206;24.142;2022-10-04T05:06:57;99087.38;;;13.17;60.96
12215;BME280;6170;42.206;24.142;2022-10-04T05:09:28;99090.00;;;13.37;61.30
12215;BME280;6170;42.206;24.142;2022-10-04T05:12:00;99092.56;;;14.39;59.94
12215;BME280;6170;42.206;24.142;2022-10-04T05:14:33;99098.53;;;15.70;55.96
12215;BME280;6170;42.206;24.142;2022-10-04T05:17:01;99101.31;;;16.76;53.58
12215;BME280;6170;42.206;24.142;2022-10-04T05:19:30;99074.88;;;17.41;52.11
12215;BME280;6170;42.206;24.142;2022-10-04T05:22:00;99093.75;;;18.33;52.50
12215;BME280;6170;42.206;24.142;2022-10-04T05:24:30;99080.38;;;19.32;49.11
12215;BME280;6170;42.206;24.142;2022-10-04T05:27:00;99089.56;;;19.47;50.10
12215;BME280;6170;42.206;24.142;2022-10-04T05:29:31;99095.47;;;20.31;47.44
12215;BME280;6170;42.206;24.142;2022-10-04T05:32:10;99108.13;;;20.47;47.86
12215;BME280;6170;42.206;24.142;2022-10-04T05:34:42;99115.97;;;19.47;47.44
12215;BME280;6170;42.206;24.142;2022-10-04T05:37:37;99090.94;;;18.56;49.87
12215;BME280;6170;42.206;24.142;2022-10-04T05:40:22;99096.66;;;17.58;51.13
12215;BME280;6170;42.206;24.142;2022-10-04T05:42:53;99099.41;;;17.23;52.45
12215;BME280;6170;42.206;24.142;2022-10-04T05:45:25;99099.91;;;16.85;52.75
12215;BME280;6170;42.206;24.142;2022-10-04T05:47:54;99092.25;;;16.71;53.52
12215;BME280;6170;42.206;24.142;2022-10-04T05:50:28;99118.97;;;16.79;55.37
12215;BME280;6170;42.206;24.142;2022-10-04T05:53:20;99120.00;;;16.66;55.37
12215;BME280;6170;42.206;24.142;2022-10-04T05:55:55;99114.94;;;16.70;55.17
12215;BME280;6170;42.206;24.142;2022-10-04T05:58:37;99107.84;;;16.45;54.72
12215;BME280;6170;42.206;24.142;2022-10-04T06:01:22;99115.44;;;16.78;54.23
12215;BME280;6170;42.206;24.142;2022-10-04T06:04:23;99110.13;;;16.72;57.02
12215;BME280;6170;42.206;24.142;2022-10-04T06:06:56;99118.00;;;16.73;56.00
12215;BME280;6170;42.206;24.142;2022-10-04T06:09:46;99130.59;;;16.91;55.63
12215;BME280;6170;42.206;24.142;2022-10-04T06:12:20;99140.28;;;17.33;55.37
12215;BME280;6170;42.206;24.142;2022-10-04T06:15:15;99146.53;;;18.25;53.61
12215;BME280;6170;42.206;24.142;2022-10-04T06:21:21;99153.31;;;18.84;50.05
12215;BME280;6170;42.206;24.142;2022-10-04T06:23:55;99148.75;;;18.90;50.99
12215;BME280;6170;42.206;24.142;2022-10-04T06:26:28;99154.47;;;19.82;49.10
12215;BME280;6170;42.206;24.142;2022-10-04T06:28:59;99159.13;;;20.08;48.70
12215;BME280;6170;42.206;24.142;2022-10-04T06:34:50;99154.06;;;21.02;46.80
12215;BME280;6170;42.206;24.142;2022-10-04T06:37:56;99195.75;;;21.77;47.26
12215;BME280;6170;42.206;24.142;2022-10-04T06:40:38;99153.38;;;21.17;46.18
12215;BME280;6170;42.206;24.142;2022-10-04T06:43:29;99165.00;;;20.00;46.37
12215;BME280;6170;42.206;24.142;2022-10-04T06:46:07;99156.22;;;19.93;47.47
12215;BME280;6170;42.206;24.142;2022-10-04T06:48:49;99167.25;;;18.76;48.70
12215;BME280;6170;42.206;24.142;2022-10-04T06:51:36;99169.03;;;17.98;49.79
12215;BME280;6170;42.206;24.142;2022-10-04T06:54:16;99160.72;;;18.16;50.77
12215;BME280;6170;42.206;24.142;2022-10-04T06:57:07;99172.88;;;17.50;51.43
12215;BME280;6170;42.206;24.142;2022-10-04T06:59:48;99164.84;;;18.18;50.56
12215;BME280;6170;42.206;24.142;2022-10-04T07:02:26;99162.09;;;19.08;49.24
12215;BME280;6170;42.206;24.142;2022-10-04T07:04:59;99161.81;;;19.60;46.53
12215;BME280;6170;42.206;24.142;2022-10-04T07:07:30;99177.53;;;19.41;47.76
12215;BME280;6170;42.206;24.142;2022-10-04T07:10:26;99217.50;;;20.01;47.76
12215;BME280;6170;42.206;24.142;2022-10-04T07:13:13;99175.38;;;20.47;46.74
12215;BME280;6170;42.206;24.142;2022-10-04T07:15:46;99176.03;;;20.59;45.85
12215;BME280;6170;42.206;24.142;2022-10-04T07:18:19;99186.47;;;20.99;46.14
12215;BME280;6170;42.206;24.142;2022-10-04T07:20:49;99186.25;;;21.37;45.68
12215;BME280;6170;42.206;24.142;2022-10-04T07:23:23;99183.34;;;20.85;45.33
12215;BME280;6170;42.206;24.142;2022-10-04T07:25:57;99178.56;;;20.17;45.82
12215;BME280;6170;42.206;24.142;2022-10-04T07:28:28;99181.50;;;19.34;47.36
12215;BME280;6170;42.206;24.142;2022-10-04T07:31:20;99193.03;;;20.01;46.77
12215;BME280;6170;42.206;24.142;2022-10-04T07:33:53;99189.97;;;20.94;47.37
12215;BME280;6170;42.206;24.142;2022-10-04T07:36:26;99213.41;;;20.95;45.52
12215;BME280;6170;42.206;24.142;2022-10-04T07:38:57;99197.13;;;20.74;46.36
12215;BME280;6170;42.206;24.142;2022-10-04T07:41:31;99196.13;;;20.09;46.82
12215;BME280;6170;42.206;24.142;2022-10-04T07:44:03;99185.81;;;20.11;47.55
12215;BME280;6170;42.206;24.142;2022-10-04T07:46:43;99189.84;;;20.79;47.00
12215;BME280;6170;42.206;24.142;2022-10-04T07:49:13;99176.72;;;20.76;46.95
12215;BME280;6170;42.206;24.142;2022-10-04T07:51:48;99167.63;;;20.92;47.16
12215;BME280;6170;42.206;24.142;2022-10-04T07:54:22;99192.97;;;21.67;46.03
12215;BME280;6170;42.206;24.142;2022-10-04T07:56:58;99212.53;;;20.90;45.81
12215;BME280;6170;42.206;24.142;2022-10-04T07:59:36;99201.50;;;20.48;47.09
12215;BME280;6170;42.206;24.142;2022-10-04T08:02:20;99213.34;;;20.37;46.33
12215;BME280;6170;42.206;24.142;2022-10-04T08:05:01;99203.84;;;19.74;46.56
12215;BME280;6170;42.206;24.142;2022-10-04T08:07:45;99209.25;;;19.19;48.39
12215;BME280;6170;42.206;24.142;2022-10-04T08:10:24;99212.13;;;19.12;48.15
12215;BME280;6170;42.206;24.142;2022-10-04T08:13:05;99214.91;;;19.34;49.27
12215;BME280;6170;42.206;24.142;2022-10-04T08:15:37;99214.94;;;19.01;49.72
12215;BME280;6170;42.206;24.142;2022-10-04T08:18:14;99190.88;;;18.48;49.85
12215;BME280;6170;42.206;24.142;2022-10-04T08:20:47;99219.94;;;18.75;50.09
12215;BME280;6170;42.206;24.142;2022-10-04T08:23:29;99216.72;;;18.22;50.35
12215;BME280;6170;42.206;24.142;2022-10-04T08:26:17;99218.47;;;18.84;50.54
12215;BME280;6170;42.206;24.142;2022-10-04T08:28:57;99170.97;;;19.04;49.77
12215;BME280;6170;42.206;24.142;2022-10-04T08:31:54;99208.88;;;20.04;47.51
12215;BME280;6170;42.206;24.142;2022-10-04T08:34:31;99227.25;;;19.97;48.46
12215;BME280;6170;42.206;24.142;2022-10-04T08:37:07;99229.22;;;19.80;47.88
12215;BME280;6170;42.206;24.142;2022-10-04T08:39:50;99221.19;;;20.11;48.98
12215;BME280;6170;42.206;24.142;2022-10-04T08:42:50;99215.28;;;21.22;47.07
12215;BME280;6170;42.206;24.142;2022-10-04T08:52:19;99217.81;;;21.70;45.66
12215;BME280;6170;42.206;24.142;2022-10-04T08:55:16;99212.97;;;21.08;45.66
12215;BME280;6170;42.206;24.142;2022-10-04T09:00:59;99208.34;;;21.41;45.53
12215;BME280;6170;42.206;24.142;2022-10-04T09:04:11;99261.47;;;21.75;45.59
12215;BME280;6170;42.206;24.142;2022-10-04T09:06:54;99222.25;;;21.39;44.82
12215;BME280;6170;42.206;24.142;2022-10-04T09:09:42;99222.09;;;21.61;46.40
12215;BME280;6170;42.206;24.142;2022-10-04T09:12:30;99220.78;;;21.69;44.49
12215;BME280;6170;42.206;24.142;2022-10-04T09:15:15;99212.72;;;20.51;46.18
12215;BME280;6170;42.206;24.142;2022-10-04T09:17:52;99209.81;;;20.63;46.18
12215;BME280;6170;42.206;24.142;2022-10-04T09:20:22;99214.72;;;20.88;46.04
12215;BME280;6170;42.206;24.142;2022-10-04T09:23:10;99226.44;;;20.61;46.09
12215;BME280;6170;42.206;24.142;2022-10-04T09:25:56;99232.59;;;21.42;45.26
12215;BME280;6170;42.206;24.142;2022-10-04T09:31:48;99229.03;;;22.26;42.42
12215;BME280;6170;42.206;24.142;2022-10-04T09:34:30;99223.44;;;22.73;42.83
12215;BME280;6170;42.206;24.142;2022-10-04T09:37:14;99223.47;;;22.06;44.40
12215;BME280;6170;42.206;24.142;2022-10-04T09:40:06;99224.06;;;22.13;43.22
12215;BME280;6170;42.206;24.142;2022-10-04T09:42:55;99228.56;;;22.59;43.27
12215;BME280;6170;42.206;24.142;2022-10-04T09:45:53;99225.69;;;22.96;42.83
12215;BME280;6170;42.206;24.142;2022-10-04T09:48:29;99237.97;;;23.09;42.89
12215;BME280;6170;42.206;24.142;2022-10-04T09:51:15;99234.69;;;23.22;41.51
12215;BME280;6170;42.206;24.142;2022-10-04T09:54:05;99235.25;;;23.04;41.85
12215;BME280;6170;42.206;24.142;2022-10-04T09:59:54;99222.31;;;22.69;41.80
12215;BME280;6170;42.206;24.142;2022-10-04T10:02:45;99256.81;;;23.10;43.18
12215;BME280;6170;42.206;24.142;2022-10-04T10:05:27;99227.28;;;22.97;42.40
12215;BME280;6170;42.206;24.142;2022-10-04T10:08:08;99222.13;;;22.96;43.07
12215;BME280;6170;42.206;24.142;2022-10-04T10:10:46;99217.72;;;23.15;43.50
12215;BME280;6170;42.206;24.142;2022-10-04T10:13:55;99219.94;;;23.23;42.25
12215;BME280;6170;42.206;24.142;2022-10-04T10:16:31;99245.91;;;23.41;42.58
12215;BME280;6170;42.206;24.142;2022-10-04T10:19:23;99206.53;;;23.21;41.64
12215;BME280;6170;42.206;24.142;2022-10-04T10:22:10;99208.72;;;23.04;41.64
12215;BME280;6170;42.206;24.142;2022-10-04T10:28:03;99201.09;;;23.01;41.97
12215;BME280;6170;42.206;24.142;2022-10-04T10:30:49;99209.97;;;24.03;41.50
12215;BME280;6170;42.206;24.142;2022-10-04T10:33:52;99207.53;;;23.91;39.79
12215;BME280;6170;42.206;24.142;2022-10-04T10:36:43;99203.84;;;22.14;40.52
12215;BME280;6170;42.206;24.142;2022-10-04T10:42:53;99159.63;;;21.13;43.18
12215;BME280;6170;42.206;24.142;2022-10-04T10:45:53;99193.06;;;21.40;42.30
12215;BME280;6170;42.206;24.142;2022-10-04T10:48:43;99202.69;;;21.94;41.83
12215;BME280;6170;42.206;24.142;2022-10-04T10:51:16;99198.06;;;22.88;40.71
12215;BME280;6170;42.206;24.142;2022-10-04T10:56:58;99205.44;;;23.02;40.33
12215;BME280;6170;42.206;24.142;2022-10-04T11:00:07;99208.44;;;23.06;41.43
12215;BME280;6170;42.206;24.142;2022-10-04T11:03:15;99197.78;;;23.40;41.32
12215;BME280;6170;42.206;24.142;2022-10-04T11:06:10;99199.44;;;23.31;39.54
12215;BME280;6170;42.206;24.142;2022-10-04T11:12:22;99215.69;;;22.34;40.66
12215;BME280;6170;42.206;24.142;2022-10-04T11:15:38;99212.31;;;22.12;41.34
12215;BME280;6170;42.206;24.142;2022-10-04T11:18:42;99244.31;;;21.80;42.48
12215;BME280;6170;42.206;24.142;2022-10-04T11:21:29;99206.56;;;22.09;40.96
12215;BME280;6170;42.206;24.142;2022-10-04T11:27:16;99214.56;;;21.78;41.90
12215;BME280;6170;42.206;24.142;2022-10-04T11:30:08;99216.34;;;21.94;40.69
12215;BME280;6170;42.206;24.142;2022-10-04T11:33:14;99249.16;;;22.97;41.54
12215;BME280;6170;42.206;24.142;2022-10-04T11:36:31;99215.00;;;23.20;40.61
12215;BME280;6170;42.206;24.142;2022-10-04T11:39:29;99211.44;;;22.99;39.64
12215;BME280;6170;42.206;24.142;2022-10-04T11:42:04;99212.53;;;22.98;38.98
12215;BME280;6170;42.206;24.142;2022-10-04T11:45:16;99206.78;;;22.90;39.45
12215;BME280;6170;42.206;24.142;2022-10-04T11:47:56;99196.41;;;22.71;39.25
12215;BME280;6170;42.206;24.142;2022-10-04T11:50:36;99198.63;;;23.00;38.74
12215;BME280;6170;42.206;24.142;2022-10-04T11:53:30;99198.53;;;22.54;39.78
12215;BME280;6170;42.206;24.142;2022-10-04T11:56:19;99191.38;;;22.38;40.53
12215;BME280;6170;42.206;24.142;2022-10-04T11:59:07;99197.63;;;22.28;39.55
12215;BME280;6170;42.206;24.142;2022-10-04T12:07:54;99193.97;;;23.00;40.22
12215;BME280;6170;42.206;24.142;2022-10-04T12:10:33;99190.81;;;22.36;39.93
12215;BME280;6170;42.206;24.142;2022-10-04T12:13:18;99207.13;;;21.64;39.99
12215;BME280;6170;42.206;24.142;2022-10-04T12:16:03;99208.44;;;20.87;41.79
12215;BME280;6170;42.206;24.142;2022-10-04T12:19:01;99209.78;;;21.17;42.25
12215;BME280;6170;42.206;24.142;2022-10-04T12:21:41;99202.06;;;21.40;41.28
12215;BME280;6170;42.206;24.142;2022-10-04T12:24:46;99204.19;;;21.75;41.28
12215;BME280;6170;42.206;24.142;2022-10-04T12:27:46;99236.09;;;21.75;40.98
12215;BME280;6170;42.206;24.142;2022-10-04T12:30:26;99203.94;;;21.77;41.35
12215;BME280;6170;42.206;24.142;2022-10-04T12:33:19;99222.47;;;20.47;42.02
12215;BME280;6170;42.206;24.142;2022-10-04T12:35:59;99205.84;;;20.27;42.80
12215;BME280;6170;42.206;24.142;2022-10-04T12:38:53;99196.72;;;20.87;42.20
12215;BME280;6170;42.206;24.142;2022-10-04T12:41:30;99206.75;;;20.54;42.77
12215;BME280;6170;42.206;24.142;2022-10-04T12:44:10;99182.97;;;20.23;42.05
12215;BME280;6170;42.206;24.142;2022-10-04T12:46:48;99203.63;;;20.99;42.11
12215;BME280;6170;42.206;24.142;2022-10-04T12:49:29;99198.19;;;21.31;41.93
12215;BME280;6170;42.206;24.142;2022-10-04T12:52:06;99206.78;;;20.86;42.76
12215;BME280;6170;42.206;24.142;2022-10-04T12:54:38;99203.59;;;20.68;42.31
12215;BME280;6170;42.206;24.142;2022-10-04T12:57:26;99201.03;;;20.83;41.90
12215;BME280;6170;42.206;24.142;2022-10-04T13:00:03;99201.25;;;20.28;42.23
12215;BME280;6170;42.206;24.142;2022-10-04T13:05:33;99199.91;;;20.52;42.70
12215;BME280;6170;42.206;24.142;2022-10-04T13:08:26;99178.34;;;20.24;42.67
12215;BME280;6170;42.206;24.142;2022-10-04T13:11:08;99184.66;;;20.78;41.89
12215;BME280;6170;42.206;24.142;2022-10-04T13:14:15;99199.84;;;21.00;42.19
12215;BME280;6170;42.206;24.142;2022-10-04T13:16:55;99193.66;;;21.10;42.00
12215;BME280;6170;42.206;24.142;2022-10-04T13:19:32;99195.78;;;20.71;42.75
12215;BME280;6170;42.206;24.142;2022-10-04T13:22:18;99202.22;;;20.65;42.15
12215;BME280;6170;42.206;24.142;2022-10-04T13:25:00;99204.44;;;20.68;42.84
12215;BME280;6170;42.206;24.142;2022-10-04T13:27:38;99201.25;;;20.28;43.11
12215;BME280;6170;42.206;24.142;2022-10-04T13:30:17;99188.47;;;20.28;41.79
12215;BME280;6170;42.206;24.142;2022-10-04T13:32:54;99188.25;;;19.86;43.47
12215;BME280;6170;42.206;24.142;2022-10-04T13:35:28;99196.13;;;20.09;43.05
12215;BME280;6170;42.206;24.142;2022-10-04T13:38:14;99196.97;;;19.88;43.45
12215;BME280;6170;42.206;24.142;2022-10-04T13:40:58;99197.03;;;20.15;43.06
12215;BME280;6170;42.206;24.142;2022-10-04T13:43:47;99204.66;;;20.18;42.95
12215;BME280;6170;42.206;24.142;2022-10-04T13:46:27;99205.13;;;20.10;42.77
12215;BME280;6170;42.206;24.142;2022-10-04T13:49:03;99203.16;;;20.05;42.24
12215;BME280;6170;42.206;24.142;2022-10-04T13:51:48;99201.47;;;19.99;42.68
12215;BME280;6170;42.206;24.142;2022-10-04T13:54:44;99200.00;;;20.13;42.02
12215;BME280;6170;42.206;24.142;2022-10-04T13:57:36;99203.28;;;20.15;42.24
12215;BME280;6170;42.206;24.142;2022-10-04T14:00:09;99219.00;;;20.30;43.04
12215;BME280;6170;42.206;24.142;2022-10-04T14:08:50;99207.84;;;19.88;43.53
12215;BME280;6170;42.206;24.142;2022-10-04T14:11:42;99197.03;;;19.93;43.76
12215;BME280;6170;42.206;24.142;2022-10-04T14:14:31;99196.41;;;19.86;44.41
12215;BME280;6170;42.206;24.142;2022-10-04T14:17:23;99199.50;;;20.16;43.72
12215;BME280;6170;42.206;24.142;2022-10-04T14:26:56;99185.84;;;19.90;44.31
12215;BME280;6170;42.206;24.142;2022-10-04T14:30:03;99267.06;;;20.25;45.19
12215;BME280;6170;42.206;24.142;2022-10-04T14:35:59;99220.94;;;19.36;46.24
12215;BME280;6170;42.206;24.142;2022-10-04T14:38:47;99222.59;;;19.37;46.05
12215;BME280;6170;42.206;24.142;2022-10-04T14:44:59;99223.72;;;18.74;48.37
12215;BME280;6170;42.206;24.142;2022-10-04T14:51:01;99221.50;;;18.71;49.01
12215;BME280;6170;42.206;24.142;2022-10-04T14:53:35;99243.69;;;18.28;49.51
12215;BME280;6170;42.206;24.142;2022-10-04T14:56:31;99241.13;;;18.50;49.32
12215;BME280;6170;42.206;24.142;2022-10-04T14:59:13;99243.00;;;18.61;48.79
12215;BME280;6170;42.206;24.142;2022-10-04T15:02:08;99258.97;;;18.46;47.85
12215;BME280;6170;42.206;24.142;2022-10-04T15:05:02;99256.34;;;18.51;48.88
12215;BME280;6170;42.206;24.142;2022-10-04T15:07:36;99254.63;;;18.45;48.99
12215;BME280;6170;42.206;24.142;2022-10-04T15:10:09;99258.78;;;18.36;48.83
12215;BME280;6170;42.206;24.142;2022-10-04T15:12:57;99253.06;;;18.49;48.67
12215;BME280;6170;42.206;24.142;2022-10-04T15:18:27;99227.38;;;17.88;48.79